createdAt,value
2024-05-09T00:02:08.057Z,3.60
2024-05-09T00:04:34.672Z,3.40
2024-05-09T00:07:01.081Z,3.60
2024-05-09T00:09:27.494Z,3.77
2024-05-09T00:11:54.028Z,3.30
2024-05-09T00:14:20.558Z,3.37
2024-05-09T00:16:48.529Z,3.30
2024-05-09T00:19:15.244Z,3.67
2024-05-09T00:21:43.189Z,3.97
2024-05-09T00:24:09.831Z,3.50
2024-05-09T00:26:36.337Z,3.37
2024-05-09T00:29:02.846Z,3.50
2024-05-09T00:31:29.388Z,3.90
2024-05-09T00:33:56.045Z,4.00
2024-05-09T00:36:22.594Z,3.50
2024-05-09T00:38:48.991Z,3.83
2024-05-09T00:41:18.953Z,4.00
2024-05-09T00:43:46.026Z,3.63
2024-05-09T00:46:12.506Z,3.87
2024-05-09T00:48:39.488Z,3.87
2024-05-09T00:51:06.179Z,4.00
2024-05-09T00:53:33.739Z,3.53
2024-05-09T00:56:01.008Z,3.93
2024-05-09T00:58:28.924Z,3.67
2024-05-09T01:00:56.128Z,3.60
2024-05-09T01:03:22.992Z,3.43
2024-05-09T01:05:49.608Z,3.43
2024-05-09T01:08:16.192Z,3.60
2024-05-09T01:10:45.068Z,3.90
2024-05-09T01:13:13.425Z,3.47
2024-05-09T01:15:39.936Z,3.50
2024-05-09T01:18:07.327Z,3.73
2024-05-09T01:20:41.112Z,3.63
2024-05-09T01:23:10.492Z,3.93
2024-05-09T01:25:37.216Z,3.57
2024-05-09T01:28:03.743Z,3.40
2024-05-09T01:30:34.878Z,3.43
2024-05-09T01:33:05.229Z,3.87
2024-05-09T01:35:32.663Z,4.07
2024-05-09T01:37:59.146Z,3.80
2024-05-09T01:40:35.524Z,3.80
2024-05-09T01:43:04.915Z,3.70
2024-05-09T01:45:31.431Z,3.77
2024-05-09T01:47:58.305Z,4.07
2024-05-09T01:50:36.205Z,3.50
2024-05-09T01:53:06.416Z,3.43
2024-05-09T01:55:32.862Z,3.53
2024-05-09T01:57:59.293Z,4.20
2024-05-09T02:00:36.870Z,4.10
2024-05-09T02:03:13.676Z,3.47
2024-05-09T02:05:43.070Z,3.50
2024-05-09T02:08:12.978Z,3.73
2024-05-09T02:10:39.686Z,4.00
2024-05-09T02:13:07.680Z,3.90
2024-05-09T02:15:34.121Z,3.90
2024-05-09T02:18:00.770Z,4.20
2024-05-09T02:20:33.963Z,3.57
2024-05-09T02:23:04.990Z,3.83
2024-05-09T02:25:32.059Z,4.33
2024-05-09T02:27:58.624Z,3.80
2024-05-09T02:30:35.072Z,3.90
2024-05-09T02:33:06.217Z,3.90
2024-05-09T02:35:33.033Z,4.27
2024-05-09T02:37:59.833Z,3.87
2024-05-09T02:40:35.569Z,4.03
2024-05-09T02:43:04.689Z,4.20
2024-05-09T02:45:31.343Z,4.10
2024-05-09T02:47:58.030Z,4.00
2024-05-09T02:50:33.139Z,3.80
2024-05-09T02:53:04.346Z,4.03
2024-05-09T02:55:30.928Z,3.80
2024-05-09T02:57:57.397Z,3.90
2024-05-09T03:00:29.925Z,4.03
2024-05-09T03:03:04.355Z,4.57
2024-05-09T03:05:31.077Z,3.77
2024-05-09T03:07:57.788Z,3.80
2024-05-09T03:10:28.527Z,4.20
2024-05-09T03:12:55.584Z,3.97
2024-05-09T03:15:22.732Z,4.40
2024-05-09T03:17:49.483Z,4.13
2024-05-09T03:20:23.277Z,4.40
2024-05-09T03:22:52.720Z,4.60
2024-05-09T03:25:20.405Z,4.43
2024-05-09T03:27:46.852Z,4.20
2024-05-09T03:30:25.622Z,4.47
2024-05-09T03:32:57.384Z,4.23
2024-05-09T03:35:24.030Z,4.23
2024-05-09T03:37:50.586Z,4.50
2024-05-09T03:40:23.393Z,4.30
2024-05-09T03:42:52.591Z,4.23
2024-05-09T03:45:18.993Z,4.73
2024-05-09T03:47:46.396Z,5.10
2024-05-09T03:50:21.895Z,5.17
2024-05-09T03:52:53.371Z,4.63
2024-05-09T03:55:19.836Z,4.53
2024-05-09T03:57:46.278Z,4.13
2024-05-09T04:00:18.196Z,4.97
2024-05-09T04:02:52.661Z,4.40
2024-05-09T04:05:19.208Z,4.30
2024-05-09T04:07:45.802Z,4.87
2024-05-09T04:10:21.007Z,4.70
2024-05-09T04:12:54.556Z,5.03
2024-05-09T04:15:21.143Z,4.63
2024-05-09T04:17:51.374Z,4.73
2024-05-09T04:20:24.812Z,4.37
2024-05-09T04:23:00.589Z,4.63
2024-05-09T04:25:27.077Z,4.60
2024-05-09T04:27:55.877Z,4.30
2024-05-09T04:30:33.681Z,4.40
2024-05-09T04:33:04.855Z,5.03
2024-05-09T04:35:31.543Z,4.23
2024-05-09T04:37:58.106Z,4.27
2024-05-09T04:40:31.592Z,4.40
2024-05-09T04:43:01.415Z,4.97
2024-05-09T04:45:27.851Z,4.63
2024-05-09T04:47:54.819Z,4.50
2024-05-09T04:50:29.965Z,4.33
2024-05-09T04:53:02.917Z,4.43
2024-05-09T04:55:29.339Z,4.93
2024-05-09T04:57:55.730Z,4.90
2024-05-09T05:00:32.205Z,4.97
2024-05-09T05:03:05.956Z,4.73
2024-05-09T05:05:33.525Z,4.73
2024-05-09T05:08:00.756Z,4.83
2024-05-09T05:10:33.796Z,4.80
2024-05-09T05:13:23.852Z,4.95
2024-05-09T05:15:58.133Z,4.53
2024-05-09T05:18:25.854Z,4.90
2024-05-09T05:20:52.737Z,4.53
2024-05-09T05:23:19.961Z,4.50
2024-05-09T05:25:50.468Z,4.70
2024-05-09T05:28:16.957Z,4.83
2024-05-09T05:30:43.667Z,4.53
2024-05-09T05:33:10.776Z,4.63
2024-05-09T05:35:37.391Z,4.60
2024-05-09T05:38:04.074Z,4.50
2024-05-09T05:40:36.421Z,4.60
2024-05-09T05:43:11.227Z,4.53
2024-05-09T05:45:38.457Z,4.47
2024-05-09T05:48:06.528Z,4.57
2024-05-09T05:50:36.640Z,4.87
2024-05-09T05:53:09.162Z,4.57
2024-05-09T05:55:36.502Z,4.80
2024-05-09T05:58:03.093Z,5.60
2024-05-09T06:00:36.994Z,4.83
2024-05-09T06:03:05.975Z,4.90
2024-05-09T06:05:32.941Z,5.10
2024-05-09T06:07:59.578Z,4.53
2024-05-09T06:10:30.606Z,5.00
2024-05-09T06:13:04.391Z,4.90
2024-05-09T06:15:30.847Z,5.00
2024-05-09T06:17:57.554Z,4.77
2024-05-09T06:20:31.979Z,4.97
2024-05-09T06:23:03.436Z,5.37
2024-05-09T06:25:30.033Z,4.80
2024-05-09T06:27:56.511Z,4.80
2024-05-09T06:30:30.306Z,4.63
2024-05-09T06:33:04.737Z,4.27
2024-05-09T06:35:31.586Z,3.97
2024-05-09T06:37:58.589Z,3.90
2024-05-09T06:40:25.851Z,4.53
2024-05-09T06:43:00.513Z,4.33
2024-05-09T06:45:26.996Z,3.97
2024-05-09T06:47:53.738Z,3.60
2024-05-09T06:50:24.159Z,4.33
2024-05-09T06:52:54.454Z,4.20
2024-05-09T06:55:20.866Z,3.90
2024-05-09T06:57:47.294Z,3.90
2024-05-09T07:00:22.669Z,3.40
2024-05-09T07:02:56.811Z,3.97
2024-05-09T07:05:23.576Z,4.00
2024-05-09T07:07:50.110Z,3.57
2024-05-09T07:10:22.133Z,3.47
2024-05-09T07:12:55.092Z,3.50
2024-05-09T07:15:21.507Z,3.40
2024-05-09T07:17:48.058Z,3.43
2024-05-09T07:20:22.942Z,3.27
2024-05-09T07:22:54.468Z,3.20
2024-05-09T07:25:20.870Z,3.00
2024-05-09T07:27:47.280Z,2.80
2024-05-09T07:30:20.302Z,3.30
2024-05-09T07:32:53.652Z,3.13
2024-05-09T07:35:20.236Z,3.23
2024-05-09T07:37:46.702Z,3.37
2024-05-09T07:40:21.266Z,3.00
2024-05-09T07:42:54.164Z,3.20
2024-05-09T07:45:39.697Z,2.83
2024-05-09T07:53:36.346Z,3.10
2024-05-09T07:55:53.221Z,3.03
2024-05-09T07:58:19.723Z,2.90
2024-05-09T08:00:46.226Z,3.10
2024-05-09T08:03:12.670Z,2.90
2024-05-09T08:05:39.319Z,2.50
2024-05-09T08:08:05.974Z,2.73
2024-05-09T08:10:34.957Z,2.77
2024-05-09T08:13:01.490Z,2.30
2024-05-09T08:15:28.059Z,2.97
2024-05-09T08:17:54.718Z,2.80
2024-05-09T08:20:30.149Z,2.40
2024-05-09T08:22:57.648Z,2.60
2024-05-09T08:25:24.078Z,2.53
2024-05-09T08:27:50.669Z,2.70
2024-05-09T08:30:24.656Z,2.60
2024-05-09T08:32:56.872Z,2.80
2024-05-09T08:35:23.418Z,2.67
2024-05-09T08:37:50.383Z,2.30
2024-05-09T08:40:23.983Z,2.40
2024-05-09T08:42:57.518Z,2.30
2024-05-09T08:45:24.041Z,2.47
2024-05-09T08:47:51.208Z,2.40
2024-05-09T08:50:28.804Z,2.30
2024-05-09T08:53:02.466Z,2.20
2024-05-09T08:55:28.929Z,2.43
2024-05-09T08:57:55.623Z,2.27
2024-05-09T09:00:33.374Z,2.60
2024-05-09T09:03:04.293Z,2.72
2024-05-09T09:05:31.433Z,2.22
2024-05-09T09:07:58.191Z,2.17
2024-05-09T09:10:31.069Z,2.05
2024-05-09T09:13:01.139Z,1.67
2024-05-09T09:15:27.674Z,2.03
2024-05-09T09:17:55.923Z,2.20
2024-05-09T09:20:28.771Z,2.08
2024-05-09T09:23:00.402Z,2.17
2024-05-09T09:25:26.802Z,2.25
2024-05-09T09:27:53.276Z,2.13
2024-05-09T09:30:31.684Z,2.30
2024-05-09T09:33:03.518Z,1.98
2024-05-09T09:35:30.038Z,1.80
2024-05-09T09:37:56.603Z,1.83
2024-05-09T09:40:31.080Z,2.10
2024-05-09T09:43:00.650Z,2.58
2024-05-09T09:45:31.123Z,2.03
2024-05-09T09:47:59.107Z,1.90
2024-05-09T09:50:33.347Z,2.63
2024-05-09T09:53:01.405Z,1.85
2024-05-09T09:55:28.347Z,2.13
2024-05-09T09:57:56.020Z,2.33
2024-05-09T10:00:27.464Z,2.35
2024-05-09T10:02:58.919Z,2.10
2024-05-09T10:05:25.781Z,2.42
2024-05-09T10:07:53.223Z,2.10
2024-05-09T10:10:30.370Z,2.10
2024-05-09T10:13:00.157Z,2.30
2024-05-09T10:15:26.722Z,2.30
2024-05-09T10:17:53.411Z,2.10
2024-05-09T10:20:24.714Z,2.65
2024-05-09T10:22:54.284Z,2.10
2024-05-09T10:25:21.017Z,2.25
2024-05-09T10:27:54.462Z,2.55
2024-05-09T10:32:56.598Z,2.42
2024-05-09T10:35:25.349Z,2.35
2024-05-09T10:37:52.679Z,2.20
2024-05-09T10:40:26.369Z,2.53
2024-05-09T10:42:58.276Z,2.38
2024-05-09T10:45:25.041Z,2.10
2024-05-09T10:47:51.781Z,2.30
2024-05-09T10:50:25.441Z,2.83
2024-05-09T10:52:55.315Z,2.35
2024-05-09T10:55:22.154Z,2.40
2024-05-09T10:57:49.019Z,2.37
2024-05-09T11:00:23.341Z,2.60
2024-05-09T11:02:56.688Z,2.87
2024-05-09T11:05:23.932Z,2.40
2024-05-09T11:07:50.724Z,2.17
2024-05-09T11:10:24.867Z,2.43
2024-05-09T11:12:54.437Z,2.20
2024-05-09T11:15:20.856Z,2.33
2024-05-09T11:17:47.300Z,2.17
2024-05-09T11:20:19.906Z,2.13
2024-05-09T11:22:53.100Z,2.67
2024-05-09T11:25:19.619Z,2.23
2024-05-09T11:27:46.199Z,2.50
2024-05-09T11:30:26.780Z,2.20
2024-05-09T11:32:58.672Z,2.10
2024-05-09T11:35:26.535Z,2.10
2024-05-09T11:37:52.958Z,2.20
2024-05-09T11:40:25.364Z,2.10
2024-05-09T11:42:55.154Z,2.13
2024-05-09T11:45:22.006Z,1.80
2024-05-09T11:47:48.824Z,2.50
2024-05-09T11:50:22.600Z,2.90
2024-05-09T11:52:55.981Z,2.10
2024-05-09T11:55:26.731Z,4.93
2024-05-09T11:57:54.576Z,4.03
2024-05-09T12:00:29.445Z,3.40
2024-05-09T12:03:04.785Z,3.37
2024-05-09T12:05:31.901Z,4.00
2024-05-09T12:07:58.557Z,3.23
2024-05-09T12:10:32.715Z,3.83
2024-05-09T12:13:01.782Z,2.40
2024-05-09T12:15:28.368Z,2.33
2024-05-09T12:17:57.323Z,2.33
2024-05-09T12:20:32.836Z,2.10
2024-05-09T12:23:03.515Z,2.30
2024-05-09T12:25:30.194Z,1.73
2024-05-09T12:27:56.646Z,2.23
2024-05-09T12:30:32.769Z,2.37
2024-05-09T12:33:04.051Z,2.20
2024-05-09T12:35:30.608Z,2.33
2024-05-09T12:37:58.066Z,2.00
2024-05-09T12:40:34.168Z,2.50
2024-05-09T12:43:04.079Z,2.10
2024-05-09T12:45:30.622Z,2.20
2024-05-09T12:47:57.287Z,2.00
2024-05-09T12:50:31.029Z,2.10
2024-05-09T12:52:59.479Z,2.10
2024-05-09T12:55:25.964Z,2.10
2024-05-09T12:57:52.541Z,1.80
2024-05-09T13:00:24.103Z,2.07
2024-05-09T13:02:57.892Z,2.00
2024-05-09T13:05:24.612Z,2.00
2024-05-09T13:07:51.278Z,2.17
2024-05-09T13:10:25.577Z,1.87
2024-05-09T13:12:58.071Z,2.13
2024-05-09T13:15:24.657Z,2.00
2024-05-09T13:17:52.446Z,2.07
2024-05-09T13:20:26.275Z,1.90
2024-05-09T13:23:01.469Z,2.30
2024-05-09T13:25:27.915Z,2.10
2024-05-09T13:27:54.383Z,2.27
2024-05-09T13:30:29.416Z,1.83
2024-05-09T13:33:04.947Z,2.00
2024-05-09T13:35:32.222Z,1.80
2024-05-09T13:37:58.723Z,2.03
2024-05-09T13:40:32.228Z,2.00
2024-05-09T13:43:01.986Z,2.20
2024-05-09T13:45:28.898Z,2.17
2024-05-09T13:47:55.624Z,2.00
2024-05-09T13:50:30.964Z,2.20
2024-05-09T13:53:01.498Z,2.20
2024-05-09T13:55:28.054Z,2.20
2024-05-09T13:57:54.646Z,2.10
2024-05-09T14:02:50.476Z,2.00
2024-05-09T14:05:17.417Z,2.40
2024-05-09T14:07:44.062Z,2.13
2024-05-09T14:10:19.765Z,2.60
2024-05-09T14:12:52.137Z,2.20
2024-05-09T14:15:18.541Z,2.33
2024-05-09T14:17:45.033Z,2.10
2024-05-09T14:20:14.177Z,2.30
2024-05-09T14:22:43.269Z,2.33
2024-05-09T14:25:10.673Z,2.10
2024-05-09T14:27:37.196Z,2.00
2024-05-09T14:30:05.666Z,2.30
2024-05-09T14:32:32.288Z,2.27
2024-05-09T14:34:58.744Z,2.40
2024-05-09T14:37:25.222Z,2.20
2024-05-09T14:39:51.679Z,2.27
2024-05-09T14:42:18.110Z,2.00
2024-05-09T14:44:45.107Z,2.07
2024-05-09T14:47:11.628Z,2.00
2024-05-09T14:49:38.183Z,2.50
2024-05-09T14:52:05.225Z,2.13
2024-05-09T14:54:31.828Z,2.23
2024-05-09T14:56:58.330Z,2.50
2024-05-09T14:59:24.742Z,2.23
2024-05-09T15:01:51.296Z,2.07
2024-05-09T15:04:17.885Z,2.10
2024-05-09T15:06:45.217Z,2.60
2024-05-09T15:09:11.645Z,2.53
2024-05-09T15:11:38.144Z,2.50
2024-05-09T15:14:04.556Z,2.63
2024-05-09T15:16:31.253Z,2.47
2024-05-09T15:18:58.018Z,2.73
2024-05-09T15:21:24.564Z,2.50
2024-05-09T15:23:50.997Z,2.63
2024-05-09T15:26:17.565Z,2.40
2024-05-09T15:28:44.002Z,2.60
2024-05-09T15:31:10.426Z,2.20
2024-05-09T15:33:36.951Z,2.30
2024-05-09T15:36:03.574Z,2.10
2024-05-09T15:38:30.042Z,2.50
2024-05-09T15:40:56.715Z,2.37
2024-05-09T15:43:23.157Z,2.37
2024-05-09T15:45:49.684Z,2.57
2024-05-09T15:48:16.395Z,3.10
2024-05-09T15:50:43.276Z,2.30
2024-05-09T15:53:11.533Z,2.13
2024-05-09T15:55:38.770Z,1.90
2024-05-09T15:58:06.161Z,2.60
2024-05-09T16:00:38.101Z,2.43
2024-05-09T16:03:08.473Z,2.13
2024-05-09T16:05:35.180Z,2.13
2024-05-09T16:08:01.847Z,2.10
2024-05-09T16:10:32.673Z,2.60
2024-05-09T16:13:00.764Z,2.30
2024-05-09T16:15:27.365Z,2.30
2024-05-09T16:17:54.070Z,2.10
2024-05-09T16:20:33.267Z,2.20
2024-05-09T16:23:05.096Z,2.60
2024-05-09T16:25:31.498Z,2.33
2024-05-09T16:27:58.010Z,2.37
2024-05-09T16:30:31.676Z,2.13
2024-05-09T16:33:01.837Z,2.50
2024-05-09T16:35:28.391Z,2.17
2024-05-09T16:37:54.821Z,2.17
2024-05-09T16:40:29.667Z,2.33
2024-05-09T16:43:03.435Z,2.50
2024-05-09T16:45:30.037Z,2.40
2024-05-09T16:47:57.594Z,2.43
2024-05-09T16:50:29.505Z,2.20
2024-05-09T16:52:59.454Z,2.30
2024-05-09T16:55:26.839Z,2.17
2024-05-09T16:57:53.438Z,2.60
2024-05-09T17:00:30.935Z,2.30
2024-05-09T17:03:05.907Z,2.10
2024-05-09T17:05:32.780Z,2.50
2024-05-09T17:07:59.383Z,2.40
2024-05-09T17:10:31.865Z,2.43
2024-05-09T17:13:00.504Z,2.30
2024-05-09T17:15:26.983Z,2.10
2024-05-09T17:17:53.482Z,2.13
2024-05-09T17:20:29.321Z,2.30
2024-05-09T17:23:00.206Z,2.53
2024-05-09T17:25:26.762Z,2.37
2024-05-09T17:27:53.414Z,2.40
2024-05-09T17:30:28.624Z,2.40
2024-05-09T17:32:59.728Z,2.23
2024-05-09T17:35:26.293Z,2.20
2024-05-09T17:37:52.731Z,2.30
2024-05-09T17:40:27.885Z,2.27
2024-05-09T17:42:59.902Z,2.33
2024-05-09T17:45:26.401Z,2.10
2024-05-09T17:47:53.114Z,2.10
2024-05-09T17:50:27.335Z,2.47
2024-05-09T17:53:00.272Z,2.23
2024-05-09T17:55:26.818Z,2.10
2024-05-09T17:57:53.524Z,2.10
2024-05-09T18:00:28.956Z,2.13
2024-05-09T18:03:03.452Z,2.20
2024-05-09T18:05:30.360Z,2.20
2024-05-09T18:07:57.174Z,2.33
2024-05-09T18:10:29.834Z,2.00
2024-05-09T18:13:02.272Z,2.60
2024-05-09T18:15:28.796Z,2.00
2024-05-09T18:17:55.291Z,2.37
2024-05-09T18:20:32.561Z,2.97
2024-05-09T18:23:07.204Z,2.07
2024-05-09T18:25:33.630Z,2.70
2024-05-09T18:28:01.624Z,2.60
2024-05-09T18:30:33.893Z,2.57
2024-05-09T18:33:02.856Z,2.50
2024-05-09T18:35:29.477Z,2.33
2024-05-09T18:37:55.893Z,2.50
2024-05-09T18:40:31.213Z,2.50
2024-05-09T18:43:01.711Z,2.77
2024-05-09T18:45:28.436Z,2.40
2024-05-09T18:47:55.165Z,2.70
2024-05-09T18:50:31.676Z,2.60
2024-05-09T18:53:02.905Z,2.57
2024-05-09T18:55:29.511Z,2.97
2024-05-09T18:57:56.007Z,2.90
2024-05-09T19:00:33.018Z,2.77
2024-05-09T19:03:05.609Z,2.97
2024-05-09T19:05:33.298Z,2.70
2024-05-09T19:08:00.057Z,2.70
2024-05-09T19:10:33.621Z,2.60
2024-05-09T19:13:03.541Z,2.80
2024-05-09T19:15:33.290Z,3.03
2024-05-09T19:17:59.926Z,3.10
2024-05-09T19:20:33.068Z,2.67
2024-05-09T19:23:01.220Z,2.90
2024-05-09T19:25:27.697Z,2.73
2024-05-09T19:27:54.109Z,2.90
2024-05-09T19:30:29.672Z,2.90
2024-05-09T19:33:04.116Z,3.23
2024-05-09T19:35:31.153Z,2.70
2024-05-09T19:37:57.634Z,3.00
2024-05-09T19:40:30.600Z,2.63
2024-05-09T19:42:59.307Z,3.10
2024-05-09T19:45:25.836Z,3.03
2024-05-09T19:47:52.544Z,2.50
2024-05-09T19:50:26.722Z,3.27
2024-05-09T19:52:59.506Z,3.20
2024-05-09T19:55:25.954Z,3.23
2024-05-09T19:57:52.468Z,3.40
2024-05-09T20:00:25.987Z,3.30
2024-05-09T20:02:55.940Z,3.30
2024-05-09T20:05:23.244Z,3.23
2024-05-09T20:07:50.716Z,3.10
2024-05-09T20:10:23.715Z,2.87
2024-05-09T20:12:53.837Z,3.10
2024-05-09T20:15:20.316Z,2.93
2024-05-09T20:17:47.611Z,3.10
2024-05-09T20:20:24.498Z,3.10
2024-05-09T20:23:00.624Z,3.00
2024-05-09T20:25:27.084Z,2.97
2024-05-09T20:27:53.693Z,3.20
2024-05-09T20:30:28.657Z,3.00
2024-05-09T20:32:59.025Z,3.17
2024-05-09T20:35:26.445Z,2.90
2024-05-09T20:37:52.897Z,3.30
2024-05-09T20:40:26.087Z,3.33
2024-05-09T20:42:58.449Z,3.20
2024-05-09T20:45:24.887Z,3.23
2024-05-09T20:47:51.475Z,3.37
2024-05-09T20:50:27.861Z,3.50
2024-05-09T20:53:02.231Z,3.40
2024-05-09T20:55:29.534Z,3.00
2024-05-09T20:57:55.993Z,3.40
2024-05-09T21:00:29.824Z,3.10
2024-05-09T21:03:02.280Z,3.40
2024-05-09T21:05:28.980Z,3.37
2024-05-09T21:07:55.493Z,3.40
2024-05-09T21:10:22.934Z,3.33
2024-05-09T21:12:49.682Z,3.50
2024-05-09T21:15:16.115Z,3.40
2024-05-09T21:17:42.552Z,3.40
2024-05-09T21:20:14.201Z,3.40
2024-05-09T21:22:44.053Z,3.43
2024-05-09T21:25:11.400Z,3.53
2024-05-09T21:27:38.015Z,3.63
2024-05-09T21:30:07.612Z,3.23
2024-05-09T21:32:36.164Z,3.37
2024-05-09T21:35:02.638Z,3.43
2024-05-09T21:37:29.026Z,3.50
2024-05-09T21:39:55.456Z,3.70
2024-05-09T21:42:21.913Z,3.60
2024-05-09T21:44:48.309Z,3.47
2024-05-09T21:47:14.802Z,3.90
2024-05-09T21:49:41.276Z,3.60
2024-05-09T21:52:07.835Z,3.60
2024-05-09T21:54:34.378Z,3.83
2024-05-09T21:57:00.796Z,3.50
2024-05-09T21:59:27.182Z,3.70
2024-05-09T22:01:53.679Z,3.73
2024-05-09T22:04:20.207Z,4.27
2024-05-09T22:06:46.678Z,3.60
2024-05-09T22:09:13.137Z,3.47
2024-05-09T22:11:39.676Z,3.80
2024-05-09T22:14:06.092Z,3.90
2024-05-09T22:16:32.541Z,3.63
2024-05-09T22:18:59.161Z,3.93
2024-05-09T22:21:26.511Z,3.87
2024-05-09T22:23:53.075Z,4.00
2024-05-09T22:26:19.473Z,3.70
2024-05-09T22:28:45.857Z,4.13
2024-05-09T22:31:12.311Z,3.93
2024-05-09T22:33:38.931Z,4.47
2024-05-09T22:36:07.090Z,4.43
2024-05-09T22:38:33.608Z,4.20
2024-05-09T22:41:00.155Z,4.00
2024-05-09T22:43:26.635Z,3.67
2024-05-09T22:45:54.389Z,4.50
2024-05-09T22:48:21.372Z,4.23
2024-05-09T22:50:47.861Z,4.10
2024-05-09T22:53:14.412Z,4.33
2024-05-09T22:55:40.909Z,4.20
2024-05-09T22:58:07.660Z,3.97
2024-05-09T23:00:34.480Z,4.30
2024-05-09T23:03:01.838Z,4.70
2024-05-09T23:05:28.707Z,4.53
2024-05-09T23:07:55.232Z,4.70
2024-05-09T23:10:28.332Z,4.40
2024-05-09T23:13:01.443Z,5.07
2024-05-09T23:15:28.127Z,4.40
2024-05-09T23:17:55.282Z,5.17
2024-05-09T23:20:32.801Z,4.60
2024-05-09T23:23:04.227Z,4.70
2024-05-09T23:25:30.660Z,4.23
2024-05-09T23:27:57.224Z,4.80
2024-05-09T23:30:33.270Z,4.90
2024-05-09T23:33:04.601Z,5.00
2024-05-09T23:35:31.083Z,4.93
2024-05-09T23:37:57.462Z,4.77
2024-05-09T23:40:26.741Z,4.97
2024-05-09T23:43:00.757Z,4.73
2024-05-09T23:45:27.211Z,5.17
2024-05-09T23:47:53.739Z,5.00
2024-05-09T23:50:26.498Z,5.40
2024-05-09T23:52:59.581Z,4.80
2024-05-09T23:55:26.007Z,4.80
2024-05-09T23:57:52.506Z,4.97
